sensor_id;sensor_type;location;lat;lon;timestamp;pressure;altitude;pressure_sealevel;temperature;humidity
55277;BME280;41136;51.478;-2.610;2023-01-08T00:00:46;98622.97;;;9.99;100.00
55277;BME280;41136;51.478;-2.610;2023-01-08T00:03:10;98625.00;;;10.73;100.00
55277;BME280;41136;51.478;-2.610;2023-01-08T00:05:36;98624.80;;;10.64;100.00
55277;BME280;41136;51.478;-2.610;2023-01-08T00:08:01;98616.19;;;11.36;100.00
55277;BME280;41136;51.478;-2.610;2023-01-08T00:10:26;98621.30;;;10.65;100.00
55277;BME280;41136;51.478;-2.610;2023-01-08T00:12:54;98623.45;;;10.98;100.00
55277;BME280;41136;51.478;-2.610;2023-01-08T00:15:17;98625.60;;;10.68;100.00
55277;BME280;41136;51.478;-2.610;2023-01-08T00:17:43;98623.25;;;10.43;100.00
55277;BME280;41136;51.478;-2.610;2023-01-08T00:20:09;98615.23;;;10.84;100.00
55277;BME280;41136;51.478;-2.610;2023-01-08T00:22:33;98613.11;;;10.81;100.00
55277;BME280;41136;51.478;-2.610;2023-01-08T00:24:59;98610.50;;;10.91;100.00
55277;BME280;41136;51.478;-2.610;2023-01-08T00:27:24;98601.03;;;10.25;100.00
55277;BME280;41136;51.478;-2.610;2023-01-08T00:29:49;98602.12;;;10.06;100.00
55277;BME280;41136;51.478;-2.610;2023-01-08T00:32:15;98594.72;;;10.55;100.00
55277;BME280;41136;51.478;-2.610;2023-01-08T00:34:40;98597.77;;;10.17;100.00
55277;BME280;41136;51.478;-2.610;2023-01-08T00:37:05;98601.59;;;10.31;100.00
55277;BME280;41136;51.478;-2.610;2023-01-08T00:39:31;98604.77;;;10.22;100.00
55277;BME280;41136;51.478;-2.610;2023-01-08T00:41:56;98597.25;;;10.27;100.00
55277;BME280;41136;51.478;-2.610;2023-01-08T00:44:22;98597.15;;;10.34;100.00
55277;BME280;41136;51.478;-2.610;2023-01-08T00:46:47;98589.84;;;10.63;100.00
55277;BME280;41136;51.478;-2.610;2023-01-08T00:49:13;98587.85;;;10.36;100.00
55277;BME280;41136;51.478;-2.610;2023-01-08T00:51:38;98590.83;;;10.21;100.00
55277;BME280;41136;51.478;-2.610;2023-01-08T00:54:03;98588.70;;;10.70;100.00
55277;BME280;41136;51.478;-2.610;2023-01-08T00:56:29;98579.55;;;10.21;100.00
55277;BME280;41136;51.478;-2.610;2023-01-08T00:58:54;98573.40;;;10.00;100.00
55277;BME280;41136;51.478;-2.610;2023-01-08T01:01:19;98575.66;;;10.53;100.00
55277;BME280;41136;51.478;-2.610;2023-01-08T01:03:44;98574.43;;;10.56;100.00
55277;BME280;41136;51.478;-2.610;2023-01-08T01:06:11;98575.42;;;10.55;100.00
55277;BME280;41136;51.478;-2.610;2023-01-08T01:08:35;98570.06;;;10.69;100.00
55277;BME280;41136;51.478;-2.610;2023-01-08T01:11:01;98566.72;;;10.42;100.00
55277;BME280;41136;51.478;-2.610;2023-01-08T01:13:25;98563.83;;;10.81;100.00
55277;BME280;41136;51.478;-2.610;2023-01-08T01:15:56;98562.35;;;10.80;100.00
55277;BME280;41136;51.478;-2.610;2023-01-08T01:18:16;98561.93;;;9.64;100.00
55277;BME280;41136;51.478;-2.610;2023-01-08T01:20:41;98562.73;;;10.00;100.00
55277;BME280;41136;51.478;-2.610;2023-01-08T01:23:07;98551.88;;;10.15;100.00
55277;BME280;41136;51.478;-2.610;2023-01-08T01:25:35;98557.27;;;9.90;100.00
55277;BME280;41136;51.478;-2.610;2023-01-08T01:27:57;98551.41;;;9.95;100.00
55277;BME280;41136;51.478;-2.610;2023-01-08T01:30:22;98560.16;;;9.51;100.00
55277;BME280;41136;51.478;-2.610;2023-01-08T01:32:48;98555.29;;;9.72;100.00
55277;BME280;41136;51.478;-2.610;2023-01-08T01:35:13;98552.52;;;9.90;100.00
55277;BME280;41136;51.478;-2.610;2023-01-08T01:37:39;98543.35;;;9.89;100.00
55277;BME280;41136;51.478;-2.610;2023-01-08T01:40:05;98542.59;;;10.59;100.00
55277;BME280;41136;51.478;-2.610;2023-01-08T01:42:29;98539.25;;;10.39;100.00
55277;BME280;41136;51.478;-2.610;2023-01-08T01:44:55;98544.18;;;10.24;100.00
55277;BME280;41136;51.478;-2.610;2023-01-08T01:47:24;98541.25;;;9.90;100.00
55277;BME280;41136;51.478;-2.610;2023-01-08T01:49:52;98538.70;;;10.57;100.00
55277;BME280;41136;51.478;-2.610;2023-01-08T01:52:11;98539.14;;;10.41;100.00
55277;BME280;41136;51.478;-2.610;2023-01-08T01:54:36;98532.72;;;10.44;100.00
55277;BME280;41136;51.478;-2.610;2023-01-08T01:57:02;98530.69;;;10.52;100.00
55277;BME280;41136;51.478;-2.610;2023-01-08T01:59:27;98533.49;;;9.91;100.00
55277;BME280;41136;51.478;-2.610;2023-01-08T02:01:53;98524.67;;;10.01;100.00
55277;BME280;41136;51.478;-2.610;2023-01-08T02:04:18;98524.04;;;10.56;100.00
55277;BME280;41136;51.478;-2.610;2023-01-08T02:06:47;98520.40;;;10.20;100.00
55277;BME280;41136;51.478;-2.610;2023-01-08T02:09:13;98518.04;;;10.43;100.00
55277;BME280;41136;51.478;-2.610;2023-01-08T02:11:41;98502.87;;;10.59;100.00
55277;BME280;41136;51.478;-2.610;2023-01-08T02:14:04;98509.07;;;10.56;100.00
55277;BME280;41136;51.478;-2.610;2023-01-08T02:16:28;98502.98;;;10.56;100.00
55277;BME280;41136;51.478;-2.610;2023-01-08T02:18:54;98502.54;;;10.46;100.00
55277;BME280;41136;51.478;-2.610;2023-01-08T02:21:20;98505.50;;;10.78;100.00
55277;BME280;41136;51.478;-2.610;2023-01-08T02:23:46;98508.53;;;9.82;100.00
55277;BME280;41136;51.478;-2.610;2023-01-08T02:26:12;98503.42;;;9.81;100.00
55277;BME280;41136;51.478;-2.610;2023-01-08T02:28:35;98509.59;;;9.87;100.00
55277;BME280;41136;51.478;-2.610;2023-01-08T02:30:56;98506.86;;;9.98;100.00
55277;BME280;41136;51.478;-2.610;2023-01-08T02:33:22;98511.09;;;10.00;100.00
55277;BME280;41136;51.478;-2.610;2023-01-08T02:35:51;98507.04;;;10.13;100.00
55277;BME280;41136;51.478;-2.610;2023-01-08T02:38:13;98507.34;;;9.89;100.00
55277;BME280;41136;51.478;-2.610;2023-01-08T02:40:44;98502.40;;;9.95;100.00
55277;BME280;41136;51.478;-2.610;2023-01-08T02:43:07;98498.51;;;10.17;100.00
55277;BME280;41136;51.478;-2.610;2023-01-08T02:45:36;98505.14;;;9.87;100.00
55277;BME280;41136;51.478;-2.610;2023-01-08T02:47:57;98500.68;;;10.45;100.00
55277;BME280;41136;51.478;-2.610;2023-01-08T02:50:21;98504.70;;;10.22;100.00
55277;BME280;41136;51.478;-2.610;2023-01-08T02:52:51;98503.95;;;9.89;100.00
55277;BME280;41136;51.478;-2.610;2023-01-08T02:55:10;98502.34;;;10.22;100.00
55277;BME280;41136;51.478;-2.610;2023-01-08T02:57:35;98516.25;;;9.50;100.00
55277;BME280;41136;51.478;-2.610;2023-01-08T03:00:00;98523.54;;;9.28;100.00
55277;BME280;41136;51.478;-2.610;2023-01-08T03:02:27;98527.40;;;9.61;100.00
55277;BME280;41136;51.478;-2.610;2023-01-08T03:04:53;98531.31;;;9.54;100.00
55277;BME280;41136;51.478;-2.610;2023-01-08T03:07:16;98528.52;;;9.19;100.00
55277;BME280;41136;51.478;-2.610;2023-01-08T03:09:41;98524.55;;;9.15;100.00
55277;BME280;41136;51.478;-2.610;2023-01-08T03:12:12;98516.12;;;9.55;100.00
55277;BME280;41136;51.478;-2.610;2023-01-08T03:14:36;98513.18;;;9.32;100.00
55277;BME280;41136;51.478;-2.610;2023-01-08T03:17:00;98516.61;;;9.83;100.00
55277;BME280;41136;51.478;-2.610;2023-01-08T03:19:27;98521.54;;;9.15;100.00
55277;BME280;41136;51.478;-2.610;2023-01-08T03:21:50;98529.15;;;10.06;100.00
55277;BME280;41136;51.478;-2.610;2023-01-08T03:24:17;98527.00;;;9.80;100.00
55277;BME280;41136;51.478;-2.610;2023-01-08T03:26:39;98517.75;;;9.63;100.00
55277;BME280;41136;51.478;-2.610;2023-01-08T03:29:05;98513.76;;;9.54;100.00
55277;BME280;41136;51.478;-2.610;2023-01-08T03:31:30;98509.28;;;9.61;100.00
55277;BME280;41136;51.478;-2.610;2023-01-08T03:33:55;98509.67;;;9.55;100.00
55277;BME280;41136;51.478;-2.610;2023-01-08T03:36:22;98503.67;;;9.28;100.00
55277;BME280;41136;51.478;-2.610;2023-01-08T03:38:48;98504.74;;;9.33;100.00
55277;BME280;41136;51.478;-2.610;2023-01-08T03:41:13;98507.83;;;9.82;100.00
55277;BME280;41136;51.478;-2.610;2023-01-08T03:43:36;98510.03;;;10.11;100.00
55277;BME280;41136;51.478;-2.610;2023-01-08T03:46:06;98508.59;;;9.45;100.00
55277;BME280;41136;51.478;-2.610;2023-01-08T03:48:29;98511.35;;;9.39;100.00
55277;BME280;41136;51.478;-2.610;2023-01-08T03:50:52;98511.06;;;9.65;100.00
55277;BME280;41136;51.478;-2.610;2023-01-08T03:53:18;98514.91;;;9.51;100.00
55277;BME280;41136;51.478;-2.610;2023-01-08T03:55:43;98517.07;;;9.87;100.00
55277;BME280;41136;51.478;-2.610;2023-01-08T03:58:08;98511.84;;;9.52;100.00
55277;BME280;41136;51.478;-2.610;2023-01-08T04:00:34;98510.89;;;9.50;100.00
55277;BME280;41136;51.478;-2.610;2023-01-08T04:02:59;98512.06;;;9.37;100.00
55277;BME280;41136;51.478;-2.610;2023-01-08T04:05:24;98519.43;;;9.02;100.00
55277;BME280;41136;51.478;-2.610;2023-01-08T04:07:52;98513.43;;;8.60;100.00
55277;BME280;41136;51.478;-2.610;2023-01-08T04:10:15;98517.39;;;8.59;100.00
55277;BME280;41136;51.478;-2.610;2023-01-08T04:12:42;98518.60;;;8.70;100.00
55277;BME280;41136;51.478;-2.610;2023-01-08T04:15:07;98524.16;;;7.90;100.00
55277;BME280;41136;51.478;-2.610;2023-01-08T04:17:31;98527.01;;;8.56;100.00
55277;BME280;41136;51.478;-2.610;2023-01-08T04:19:57;98524.73;;;8.88;100.00
55277;BME280;41136;51.478;-2.610;2023-01-08T04:22:22;98526.09;;;9.04;100.00
55277;BME280;41136;51.478;-2.610;2023-01-08T04:24:47;98528.22;;;9.18;100.00
55277;BME280;41136;51.478;-2.610;2023-01-08T04:30:12;98512.33;;;9.10;100.00
55277;BME280;41136;51.478;-2.610;2023-01-08T04:34:30;98500.82;;;10.31;100.00
55277;BME280;41136;51.478;-2.610;2023-01-08T04:36:55;98505.90;;;9.53;100.00
55277;BME280;41136;51.478;-2.610;2023-01-08T04:39:20;98509.08;;;10.13;100.00
55277;BME280;41136;51.478;-2.610;2023-01-08T04:41:46;98507.86;;;9.53;100.00
55277;BME280;41136;51.478;-2.610;2023-01-08T04:44:11;98507.29;;;10.43;100.00
55277;BME280;41136;51.478;-2.610;2023-01-08T04:46:36;98492.77;;;10.47;100.00
55277;BME280;41136;51.478;-2.610;2023-01-08T04:49:02;98487.88;;;10.33;100.00
55277;BME280;41136;51.478;-2.610;2023-01-08T04:51:27;98485.50;;;10.00;100.00
55277;BME280;41136;51.478;-2.610;2023-01-08T04:53:52;98477.10;;;10.53;100.00
55277;BME280;41136;51.478;-2.610;2023-01-08T04:56:18;98481.75;;;10.21;100.00
55277;BME280;41136;51.478;-2.610;2023-01-08T04:58:43;98486.95;;;9.40;100.00
55277;BME280;41136;51.478;-2.610;2023-01-08T05:01:10;98474.22;;;10.09;100.00
55277;BME280;41136;51.478;-2.610;2023-01-08T05:03:35;98470.45;;;10.06;100.00
55277;BME280;41136;51.478;-2.610;2023-01-08T05:05:59;98469.44;;;10.48;100.00
55277;BME280;41136;51.478;-2.610;2023-01-08T05:08:25;98472.35;;;10.14;100.00
55277;BME280;41136;51.478;-2.610;2023-01-08T05:10:50;98457.76;;;10.54;100.00
55277;BME280;41136;51.478;-2.610;2023-01-08T05:13:15;98459.36;;;9.96;100.00
55277;BME280;41136;51.478;-2.610;2023-01-08T05:15:40;98456.86;;;8.89;100.00
55277;BME280;41136;51.478;-2.610;2023-01-08T05:18:06;98461.46;;;9.32;100.00
55277;BME280;41136;51.478;-2.610;2023-01-08T05:20:32;98464.47;;;9.69;100.00
55277;BME280;41136;51.478;-2.610;2023-01-08T05:22:57;98464.54;;;9.97;100.00
55277;BME280;41136;51.478;-2.610;2023-01-08T05:25:22;98466.14;;;9.22;100.00
55277;BME280;41136;51.478;-2.610;2023-01-08T05:27:47;98468.02;;;9.28;100.00
55277;BME280;41136;51.478;-2.610;2023-01-08T05:30:13;98463.91;;;9.67;100.00
55277;BME280;41136;51.478;-2.610;2023-01-08T05:32:38;98460.67;;;9.24;100.00
55277;BME280;41136;51.478;-2.610;2023-01-08T05:35:04;98459.40;;;9.75;100.00
55277;BME280;41136;51.478;-2.610;2023-01-08T05:37:29;98460.30;;;9.48;100.00
55277;BME280;41136;51.478;-2.610;2023-01-08T05:39:54;98452.40;;;9.73;100.00
55277;BME280;41136;51.478;-2.610;2023-01-08T05:42:20;98448.16;;;9.77;100.00
55277;BME280;41136;51.478;-2.610;2023-01-08T05:44:45;98446.99;;;9.67;100.00
55277;BME280;41136;51.478;-2.610;2023-01-08T05:47:10;98447.29;;;9.50;100.00
55277;BME280;41136;51.478;-2.610;2023-01-08T05:49:36;98444.58;;;9.72;100.00
55277;BME280;41136;51.478;-2.610;2023-01-08T05:52:01;98446.60;;;9.41;100.00
55277;BME280;41136;51.478;-2.610;2023-01-08T05:54:26;98446.39;;;9.07;100.00
55277;BME280;41136;51.478;-2.610;2023-01-08T05:56:52;98445.08;;;9.62;100.00
55277;BME280;41136;51.478;-2.610;2023-01-08T05:59:17;98446.90;;;9.42;100.00
55277;BME280;41136;51.478;-2.610;2023-01-08T06:01:43;98438.60;;;8.83;100.00
55277;BME280;41136;51.478;-2.610;2023-01-08T06:04:08;98431.74;;;10.04;100.00
55277;BME280;41136;51.478;-2.610;2023-01-08T06:06:33;98427.64;;;9.70;100.00
55277;BME280;41136;51.478;-2.610;2023-01-08T06:08:59;98430.90;;;9.82;100.00
55277;BME280;41136;51.478;-2.610;2023-01-08T06:11:24;98432.66;;;9.17;100.00
55277;BME280;41136;51.478;-2.610;2023-01-08T06:13:49;98437.67;;;9.57;100.00
55277;BME280;41136;51.478;-2.610;2023-01-08T06:16:15;98428.19;;;10.15;100.00
55277;BME280;41136;51.478;-2.610;2023-01-08T06:18:40;98422.32;;;9.23;100.00
55277;BME280;41136;51.478;-2.610;2023-01-08T06:21:06;98417.47;;;9.81;100.00
55277;BME280;41136;51.478;-2.610;2023-01-08T06:23:31;98420.87;;;10.15;100.00
55277;BME280;41136;51.478;-2.610;2023-01-08T06:25:58;98427.48;;;10.04;100.00
55277;BME280;41136;51.478;-2.610;2023-01-08T06:28:22;98425.90;;;9.57;100.00
55277;BME280;41136;51.478;-2.610;2023-01-08T06:30:47;98419.87;;;10.14;100.00
55277;BME280;41136;51.478;-2.610;2023-01-08T06:33:12;98419.11;;;9.74;100.00
55277;BME280;41136;51.478;-2.610;2023-01-08T06:35:38;98417.07;;;10.06;100.00
55277;BME280;41136;51.478;-2.610;2023-01-08T06:38:03;98407.58;;;9.35;100.00
55277;BME280;41136;51.478;-2.610;2023-01-08T06:40:29;98397.72;;;9.27;100.00
55277;BME280;41136;51.478;-2.610;2023-01-08T06:42:54;98394.54;;;9.11;100.00
55277;BME280;41136;51.478;-2.610;2023-01-08T06:45:20;98394.99;;;9.32;100.00
55277;BME280;41136;51.478;-2.610;2023-01-08T06:47:45;98391.04;;;9.70;100.00
55277;BME280;41136;51.478;-2.610;2023-01-08T06:50:10;98389.25;;;9.50;100.00
55277;BME280;41136;51.478;-2.610;2023-01-08T06:52:36;98379.28;;;9.60;100.00
55277;BME280;41136;51.478;-2.610;2023-01-08T06:55:01;98380.33;;;9.30;100.00
55277;BME280;41136;51.478;-2.610;2023-01-08T06:57:26;98368.53;;;9.71;100.00
55277;BME280;41136;51.478;-2.610;2023-01-08T06:59:52;98369.35;;;9.85;100.00
55277;BME280;41136;51.478;-2.610;2023-01-08T07:02:17;98371.30;;;9.97;100.00
55277;BME280;41136;51.478;-2.610;2023-01-08T07:04:43;98372.58;;;9.54;100.00
55277;BME280;41136;51.478;-2.610;2023-01-08T07:07:09;98367.92;;;9.70;100.00
55277;BME280;41136;51.478;-2.610;2023-01-08T07:09:33;98354.55;;;9.69;100.00
55277;BME280;41136;51.478;-2.610;2023-01-08T07:11:59;98345.68;;;9.17;100.00
55277;BME280;41136;51.478;-2.610;2023-01-08T07:14:24;98354.44;;;9.32;100.00
55277;BME280;41136;51.478;-2.610;2023-01-08T07:16:49;98358.48;;;9.40;100.00
55277;BME280;41136;51.478;-2.610;2023-01-08T07:19:15;98362.39;;;9.61;100.00
55277;BME280;41136;51.478;-2.610;2023-01-08T07:21:40;98358.43;;;9.34;100.00
55277;BME280;41136;51.478;-2.610;2023-01-08T07:24:06;98356.83;;;9.48;100.00
55277;BME280;41136;51.478;-2.610;2023-01-08T07:26:31;98354.26;;;9.37;100.00
55277;BME280;41136;51.478;-2.610;2023-01-08T07:28:56;98351.47;;;9.55;100.00
55277;BME280;41136;51.478;-2.610;2023-01-08T07:31:22;98349.72;;;9.52;100.00
55277;BME280;41136;51.478;-2.610;2023-01-08T07:33:47;98343.21;;;9.72;100.00
55277;BME280;41136;51.478;-2.610;2023-01-08T07:36:12;98345.93;;;10.13;100.00
55277;BME280;41136;51.478;-2.610;2023-01-08T07:38:38;98341.57;;;9.96;100.00
55277;BME280;41136;51.478;-2.610;2023-01-08T07:41:03;98335.13;;;10.00;100.00
55277;BME280;41136;51.478;-2.610;2023-01-08T07:43:29;98335.87;;;9.76;100.00
55277;BME280;41136;51.478;-2.610;2023-01-08T07:45:54;98335.06;;;9.49;100.00
55277;BME280;41136;51.478;-2.610;2023-01-08T07:48:19;98329.92;;;9.29;100.00
55277;BME280;41136;51.478;-2.610;2023-01-08T07:50:45;98325.78;;;9.76;100.00
55277;BME280;41136;51.478;-2.610;2023-01-08T07:53:11;98318.46;;;9.63;100.00
55277;BME280;41136;51.478;-2.610;2023-01-08T07:55:35;98305.44;;;9.45;100.00
55277;BME280;41136;51.478;-2.610;2023-01-08T07:58:06;98297.13;;;10.44;100.00
55277;BME280;41136;51.478;-2.610;2023-01-08T08:00:26;98289.35;;;10.14;100.00
55277;BME280;41136;51.478;-2.610;2023-01-08T08:02:52;98288.60;;;10.10;100.00
55277;BME280;41136;51.478;-2.610;2023-01-08T08:05:17;98280.58;;;9.98;100.00
55277;BME280;41136;51.478;-2.610;2023-01-08T08:07:42;98279.98;;;9.91;100.00
55277;BME280;41136;51.478;-2.610;2023-01-08T08:10:08;98274.69;;;10.02;100.00
55277;BME280;41136;51.478;-2.610;2023-01-08T08:12:33;98278.18;;;9.72;100.00
55277;BME280;41136;51.478;-2.610;2023-01-08T08:14:58;98270.39;;;9.94;100.00
55277;BME280;41136;51.478;-2.610;2023-01-08T08:17:24;98267.62;;;10.14;100.00
55277;BME280;41136;51.478;-2.610;2023-01-08T08:19:49;98265.51;;;9.94;100.00
55277;BME280;41136;51.478;-2.610;2023-01-08T08:22:15;98260.52;;;9.85;100.00
55277;BME280;41136;51.478;-2.610;2023-01-08T08:24:40;98259.96;;;9.21;100.00
55277;BME280;41136;51.478;-2.610;2023-01-08T08:27:05;98259.13;;;9.79;100.00
55277;BME280;41136;51.478;-2.610;2023-01-08T08:29:31;98258.31;;;9.35;100.00
55277;BME280;41136;51.478;-2.610;2023-01-08T08:31:56;98258.90;;;9.78;100.00
55277;BME280;41136;51.478;-2.610;2023-01-08T08:34:21;98257.07;;;10.07;100.00
55277;BME280;41136;51.478;-2.610;2023-01-08T08:36:47;98252.35;;;9.65;100.00
55277;BME280;41136;51.478;-2.610;2023-01-08T08:39:12;98247.82;;;9.59;100.00
55277;BME280;41136;51.478;-2.610;2023-01-08T08:41:38;98243.78;;;10.03;100.00
55277;BME280;41136;51.478;-2.610;2023-01-08T08:44:03;98238.87;;;9.90;100.00
55277;BME280;41136;51.478;-2.610;2023-01-08T08:46:28;98235.50;;;9.64;100.00
55277;BME280;41136;51.478;-2.610;2023-01-08T08:48:54;98230.00;;;9.53;100.00
55277;BME280;41136;51.478;-2.610;2023-01-08T08:51:19;98226.34;;;10.40;100.00
55277;BME280;41136;51.478;-2.610;2023-01-08T08:53:44;98225.58;;;10.48;100.00
55277;BME280;41136;51.478;-2.610;2023-01-08T08:56:09;98217.25;;;10.01;100.00
55277;BME280;41136;51.478;-2.610;2023-01-08T08:58:35;98208.25;;;10.39;100.00
55277;BME280;41136;51.478;-2.610;2023-01-08T09:01:01;98208.27;;;10.35;100.00
55277;BME280;41136;51.478;-2.610;2023-01-08T09:03:26;98205.30;;;9.97;100.00
55277;BME280;41136;51.478;-2.610;2023-01-08T09:05:51;98202.15;;;9.95;100.00
55277;BME280;41136;51.478;-2.610;2023-01-08T09:08:16;98199.04;;;9.50;100.00
55277;BME280;41136;51.478;-2.610;2023-01-08T09:10:41;98194.94;;;9.44;100.00
55277;BME280;41136;51.478;-2.610;2023-01-08T09:13:07;98191.59;;;9.83;100.00
55277;BME280;41136;51.478;-2.610;2023-01-08T09:15:33;98185.11;;;9.55;100.00
55277;BME280;41136;51.478;-2.610;2023-01-08T09:17:58;98186.84;;;9.73;100.00
55277;BME280;41136;51.478;-2.610;2023-01-08T09:20:25;98180.68;;;9.44;100.00
55277;BME280;41136;51.478;-2.610;2023-01-08T09:22:49;98170.02;;;9.63;100.00
55277;BME280;41136;51.478;-2.610;2023-01-08T09:25:15;98170.56;;;9.36;100.00
55277;BME280;41136;51.478;-2.610;2023-01-08T09:27:40;98166.54;;;9.36;100.00
55277;BME280;41136;51.478;-2.610;2023-01-08T09:30:06;98165.91;;;9.66;100.00
55277;BME280;41136;51.478;-2.610;2023-01-08T09:32:30;98159.71;;;10.25;100.00
55277;BME280;41136;51.478;-2.610;2023-01-08T09:34:56;98162.75;;;10.36;100.00
55277;BME280;41136;51.478;-2.610;2023-01-08T09:37:21;98160.83;;;10.19;100.00
55277;BME280;41136;51.478;-2.610;2023-01-08T09:39:46;98158.75;;;10.59;100.00
55277;BME280;41136;51.478;-2.610;2023-01-08T09:42:12;98157.18;;;10.89;100.00
55277;BME280;41136;51.478;-2.610;2023-01-08T09:44:40;98160.91;;;10.45;100.00
55277;BME280;41136;51.478;-2.610;2023-01-08T09:47:03;98157.46;;;10.47;100.00
55277;BME280;41136;51.478;-2.610;2023-01-08T09:49:35;98154.93;;;10.13;100.00
55277;BME280;41136;51.478;-2.610;2023-01-08T09:51:53;98154.30;;;10.32;100.00
55277;BME280;41136;51.478;-2.610;2023-01-08T09:54:19;98152.59;;;9.71;100.00
55277;BME280;41136;51.478;-2.610;2023-01-08T09:56:44;98146.08;;;10.30;100.00
55277;BME280;41136;51.478;-2.610;2023-01-08T09:59:11;98138.41;;;9.49;100.00
55277;BME280;41136;51.478;-2.610;2023-01-08T10:01:37;98138.78;;;9.58;100.00
55277;BME280;41136;51.478;-2.610;2023-01-08T10:04:04;98140.86;;;10.13;100.00
55277;BME280;41136;51.478;-2.610;2023-01-08T10:06:25;98155.46;;;9.88;100.00
55277;BME280;41136;51.478;-2.610;2023-01-08T10:08:51;98158.69;;;9.80;100.00
55277;BME280;41136;51.478;-2.610;2023-01-08T10:11:16;98153.25;;;10.26;100.00
55277;BME280;41136;51.478;-2.610;2023-01-08T10:13:45;98139.24;;;10.14;100.00
55277;BME280;41136;51.478;-2.610;2023-01-08T10:16:09;98130.55;;;10.25;100.00
55277;BME280;41136;51.478;-2.610;2023-01-08T10:18:34;98135.95;;;10.33;100.00
55277;BME280;41136;51.478;-2.610;2023-01-08T10:20:58;98133.55;;;9.70;100.00
55277;BME280;41136;51.478;-2.610;2023-01-08T10:23:23;98134.85;;;10.22;100.00
55277;BME280;41136;51.478;-2.610;2023-01-08T10:25:51;98136.21;;;10.47;100.00
55277;BME280;41136;51.478;-2.610;2023-01-08T10:28:18;98136.84;;;10.08;100.00
55277;BME280;41136;51.478;-2.610;2023-01-08T10:30:39;98142.97;;;10.37;100.00
55277;BME280;41136;51.478;-2.610;2023-01-08T10:33:08;98141.63;;;10.23;100.00
55277;BME280;41136;51.478;-2.610;2023-01-08T10:35:33;98140.63;;;10.18;100.00
55277;BME280;41136;51.478;-2.610;2023-01-08T10:37:55;98141.26;;;10.50;100.00
55277;BME280;41136;51.478;-2.610;2023-01-08T10:40:25;98140.24;;;10.49;100.00
55277;BME280;41136;51.478;-2.610;2023-01-08T10:42:46;98131.45;;;10.47;100.00
55277;BME280;41136;51.478;-2.610;2023-01-08T10:45:17;98133.47;;;10.25;100.00
55277;BME280;41136;51.478;-2.610;2023-01-08T10:47:38;98127.68;;;10.88;100.00
55277;BME280;41136;51.478;-2.610;2023-01-08T10:50:04;98116.54;;;10.95;100.00
55277;BME280;41136;51.478;-2.610;2023-01-08T10:52:29;98111.53;;;10.37;100.00
55277;BME280;41136;51.478;-2.610;2023-01-08T10:54:53;98114.74;;;10.12;100.00
55277;BME280;41136;51.478;-2.610;2023-01-08T10:57:24;98114.37;;;9.90;100.00
55277;BME280;41136;51.478;-2.610;2023-01-08T10:59:43;98111.92;;;10.33;100.00
55277;BME280;41136;51.478;-2.610;2023-01-08T11:02:18;98103.96;;;10.21;100.00
55277;BME280;41136;51.478;-2.610;2023-01-08T11:04:35;98094.73;;;9.61;100.00
55277;BME280;41136;51.478;-2.610;2023-01-08T11:07:00;98094.46;;;10.46;100.00
55277;BME280;41136;51.478;-2.610;2023-01-08T11:09:28;98094.58;;;10.27;100.00
55277;BME280;41136;51.478;-2.610;2023-01-08T11:11:50;98082.62;;;10.35;100.00
55277;BME280;41136;51.478;-2.610;2023-01-08T11:14:18;98072.25;;;10.16;100.00
55277;BME280;41136;51.478;-2.610;2023-01-08T11:16:41;98063.51;;;9.74;100.00
55277;BME280;41136;51.478;-2.610;2023-01-08T11:19:14;98055.61;;;9.92;100.00
55277;BME280;41136;51.478;-2.610;2023-01-08T11:21:32;98048.22;;;10.32;100.00
55277;BME280;41136;51.478;-2.610;2023-01-08T11:24:03;98034.79;;;9.87;100.00
55277;BME280;41136;51.478;-2.610;2023-01-08T11:26:22;98031.58;;;9.98;100.00
55277;BME280;41136;51.478;-2.610;2023-01-08T11:28:54;98021.83;;;9.92;100.00
55277;BME280;41136;51.478;-2.610;2023-01-08T11:31:27;98018.39;;;10.04;100.00
55277;BME280;41136;51.478;-2.610;2023-01-08T11:33:38;98000.69;;;9.32;100.00
55277;BME280;41136;51.478;-2.610;2023-01-08T11:36:09;98013.32;;;9.32;100.00
55277;BME280;41136;51.478;-2.610;2023-01-08T11:38:29;98031.69;;;8.93;100.00
55277;BME280;41136;51.478;-2.610;2023-01-08T11:40:59;98036.12;;;8.93;100.00
55277;BME280;41136;51.478;-2.610;2023-01-08T11:43:28;98024.03;;;9.39;100.00
55277;BME280;41136;51.478;-2.610;2023-01-08T11:45:57;98024.13;;;10.13;100.00
55277;BME280;41136;51.478;-2.610;2023-01-08T11:48:23;98021.27;;;10.78;100.00
55277;BME280;41136;51.478;-2.610;2023-01-08T11:50:42;98020.98;;;10.94;100.00
55277;BME280;41136;51.478;-2.610;2023-01-08T11:53:13;98024.40;;;10.20;100.00
55277;BME280;41136;51.478;-2.610;2023-01-08T11:55:35;98026.84;;;10.42;100.00
55277;BME280;41136;51.478;-2.610;2023-01-08T11:58:03;98031.86;;;9.87;100.00
55277;BME280;41136;51.478;-2.610;2023-01-08T12:00:32;98027.85;;;9.53;100.00
55277;BME280;41136;51.478;-2.610;2023-01-08T12:02:51;98031.67;;;9.77;100.00
55277;BME280;41136;51.478;-2.610;2023-01-08T12:07:40;98025.94;;;10.12;100.00
55277;BME280;41136;51.478;-2.610;2023-01-08T12:10:04;98015.65;;;10.28;100.00
55277;BME280;41136;51.478;-2.610;2023-01-08T12:12:36;98016.76;;;10.16;100.00
55277;BME280;41136;51.478;-2.610;2023-01-08T12:15:00;98015.99;;;10.33;100.00
55277;BME280;41136;51.478;-2.610;2023-01-08T12:17:29;98009.57;;;9.92;100.00
55277;BME280;41136;51.478;-2.610;2023-01-08T12:22:17;98001.64;;;10.46;100.00
55277;BME280;41136;51.478;-2.610;2023-01-08T12:24:41;98000.45;;;10.30;100.00
55277;BME280;41136;51.478;-2.610;2023-01-08T12:26:59;98011.47;;;10.41;100.00
55277;BME280;41136;51.478;-2.610;2023-01-08T12:32:00;98013.58;;;9.74;100.00
55277;BME280;41136;51.478;-2.610;2023-01-08T12:34:15;98013.81;;;9.98;100.00
55277;BME280;41136;51.478;-2.610;2023-01-08T12:36:41;98003.28;;;10.37;100.00
55277;BME280;41136;51.478;-2.610;2023-01-08T12:39:07;97984.58;;;10.10;100.00
55277;BME280;41136;51.478;-2.610;2023-01-08T12:41:30;97968.27;;;10.70;100.00
55277;BME280;41136;51.478;-2.610;2023-01-08T12:43:56;97963.91;;;10.20;100.00
55277;BME280;41136;51.478;-2.610;2023-01-08T12:46:19;97963.99;;;10.22;100.00